Terminal Aerodrome Forecast
Issued by NWS Detroit/Pontiac, MI

Home | Current Version | Previous Version | Text Only | Print | Product List | Glossary On
Versions: 1 2 3 4 5 6 7 8 9 10 11 12 13 14 15 16 17 18
994
FTUS43 KDTX 221720
TAFFNT
TAF
KFNT 221720Z 2218/2318 07010KT P6SM SCT070 BKN100
     FM230700 09007KT P6SM OVC007
      TEMPO 2311/2313 -FZRA
     FM231300 13008KT 4SM -RA BR OVC007=

USA.gov is the U.S. government's official web portal to all federal, state and local government web resources and services.